createdAt,value
2023-05-28T00:01:07.369Z,23.04
2023-05-28T00:03:36.693Z,23.04
2023-05-28T00:06:05.234Z,23.04
2023-05-28T00:08:32.449Z,23.04
2023-05-28T00:11:02.749Z,23.05
2023-05-28T00:13:31.143Z,23.05
2023-05-28T00:15:58.515Z,23.05
2023-05-28T00:18:25.859Z,23.06
2023-05-28T00:20:53.113Z,23.05
2023-05-28T00:23:20.583Z,23.05
2023-05-28T00:25:47.918Z,23.07
2023-05-28T00:28:15.328Z,23.07
2023-05-28T00:30:42.676Z,23.07
2023-05-28T00:33:10.189Z,23.07
2023-05-28T00:35:37.621Z,23.06
2023-05-28T00:38:04.938Z,23.07
2023-05-28T00:40:32.220Z,23.06
2023-05-28T00:42:59.445Z,23.07
2023-05-28T00:45:26.703Z,23.07
2023-05-28T00:47:54.445Z,23.07
2023-05-28T00:50:21.805Z,23.07
2023-05-28T00:52:49.844Z,23.09
2023-05-28T00:55:17.412Z,23.09
2023-05-28T00:57:46.522Z,23.08
2023-05-28T01:00:15.104Z,23.10
2023-05-28T01:02:42.546Z,23.08
2023-05-28T01:05:10.599Z,23.09
2023-05-28T01:07:37.906Z,23.09
2023-05-28T01:10:06.019Z,23.12
2023-05-28T01:12:33.748Z,23.08
2023-05-28T01:15:01.052Z,23.09
2023-05-28T01:17:29.267Z,23.07
2023-05-28T01:19:56.540Z,23.10
2023-05-28T01:22:28.842Z,23.10
2023-05-28T01:24:56.149Z,23.15
2023-05-28T01:27:23.538Z,23.13
2023-05-28T01:29:50.819Z,23.12
2023-05-28T01:32:18.004Z,23.14
2023-05-28T01:34:45.674Z,23.11
2023-05-28T01:37:14.143Z,23.12
2023-05-28T01:39:46.515Z,23.12
2023-05-28T01:42:13.899Z,23.13
2023-05-28T01:44:42.681Z,23.14
2023-05-28T01:47:11.667Z,23.08
2023-05-28T01:49:39.856Z,23.08
2023-05-28T01:52:07.739Z,23.11
2023-05-28T01:54:36.001Z,23.12
2023-05-28T01:57:03.305Z,23.04
2023-05-28T01:59:31.045Z,23.04
2023-05-28T02:01:58.420Z,23.07
2023-05-28T02:04:26.128Z,23.04
2023-05-28T02:06:53.410Z,23.01
2023-05-28T02:09:20.651Z,23.07
2023-05-28T02:11:48.073Z,23.07
2023-05-28T02:14:15.770Z,23.08
2023-05-28T02:16:50.354Z,23.11
2023-05-28T02:19:18.377Z,23.06
2023-05-28T02:21:45.775Z,23.01
2023-05-28T02:24:13.065Z,23.02
2023-05-28T02:26:40.348Z,23.02
2023-05-28T02:29:07.607Z,23.04
2023-05-28T02:31:34.873Z,23.01
2023-05-28T02:34:02.104Z,23.00
2023-05-28T02:36:30.958Z,22.99
2023-05-28T02:38:58.239Z,22.97
2023-05-28T02:41:27.144Z,22.95
2023-05-28T02:43:54.863Z,22.98
2023-05-28T02:46:22.167Z,22.96
2023-05-28T02:48:49.865Z,22.97
2023-05-28T02:51:17.135Z,22.94
2023-05-28T02:53:44.360Z,22.97
2023-05-28T02:56:11.619Z,22.97
2023-05-28T02:58:38.868Z,22.95
2023-05-28T03:01:07.375Z,22.96
2023-05-28T03:03:34.800Z,22.92
2023-05-28T03:06:02.771Z,22.92
2023-05-28T03:08:30.073Z,22.95
2023-05-28T03:10:57.311Z,22.93
2023-05-28T03:13:24.561Z,22.92
2023-05-28T03:15:52.111Z,22.93
2023-05-28T03:18:19.640Z,22.91
2023-05-28T03:20:46.946Z,22.91
2023-05-28T03:23:14.176Z,22.91
2023-05-28T03:25:41.409Z,22.90
2023-05-28T03:28:09.025Z,22.93
2023-05-28T03:30:36.255Z,22.94
2023-05-28T03:33:03.508Z,22.91
2023-05-28T03:35:30.752Z,22.93
2023-05-28T03:37:57.975Z,22.94
2023-05-28T03:40:25.449Z,22.95
2023-05-28T03:42:52.674Z,22.91
2023-05-28T03:45:19.904Z,22.92
2023-05-28T03:47:47.170Z,22.92
2023-05-28T03:50:14.424Z,22.91
2023-05-28T03:52:41.939Z,22.92
2023-05-28T03:55:09.571Z,22.91
2023-05-28T03:57:37.539Z,22.91
2023-05-28T04:00:05.983Z,22.93
2023-05-28T04:02:33.323Z,22.90
2023-05-28T04:05:00.716Z,22.92
2023-05-28T04:07:28.073Z,22.92
2023-05-28T04:09:55.442Z,22.94
2023-05-28T04:12:22.729Z,22.94
2023-05-28T04:14:50.051Z,22.96
2023-05-28T04:17:17.383Z,22.95
2023-05-28T04:19:44.816Z,22.94
2023-05-28T04:22:12.031Z,22.93
2023-05-28T04:24:39.293Z,22.93
2023-05-28T04:27:07.704Z,22.92
2023-05-28T04:29:35.078Z,22.93
2023-05-28T04:32:02.419Z,22.91
2023-05-28T04:34:29.676Z,22.92
2023-05-28T04:36:57.741Z,22.93
2023-05-28T04:39:25.265Z,22.92
2023-05-28T04:41:54.775Z,22.91
2023-05-28T04:44:26.926Z,22.90
2023-05-28T04:46:54.491Z,22.92
2023-05-28T04:49:21.774Z,22.92
2023-05-28T04:51:49.028Z,22.91
2023-05-28T04:54:16.279Z,22.91
2023-05-28T04:56:43.559Z,22.92
2023-05-28T04:59:11.096Z,22.93
2023-05-28T05:01:40.147Z,22.94
2023-05-28T05:04:08.130Z,22.92
2023-05-28T05:06:35.612Z,22.96
2023-05-28T05:09:04.645Z,22.94
2023-05-28T05:11:32.023Z,22.96
2023-05-28T05:13:59.262Z,22.96
2023-05-28T05:16:26.528Z,22.99
2023-05-28T05:18:53.779Z,23.01
2023-05-28T05:21:21.543Z,23.04
2023-05-28T05:23:50.042Z,23.14
2023-05-28T05:26:18.198Z,23.13
2023-05-28T05:28:46.085Z,23.18
2023-05-28T05:31:15.890Z,23.12
2023-05-28T05:33:43.169Z,23.09
2023-05-28T05:36:11.760Z,23.14
2023-05-28T05:38:39.394Z,23.20
2023-05-28T05:41:06.693Z,23.23
2023-05-28T05:43:34.075Z,23.30
2023-05-28T05:46:01.350Z,23.36
2023-05-28T05:48:29.042Z,23.42
2023-05-28T05:50:56.720Z,23.49
2023-05-28T05:53:24.819Z,23.52
2023-05-28T05:55:52.478Z,23.53
2023-05-28T05:58:19.962Z,23.55
2023-05-28T06:00:48.871Z,23.58
2023-05-28T06:03:16.193Z,23.60
2023-05-28T06:05:43.522Z,23.62
2023-05-28T06:08:11.118Z,23.65
2023-05-28T06:10:38.334Z,23.67
2023-05-28T06:13:05.599Z,23.68
2023-05-28T06:15:33.142Z,23.70
2023-05-28T06:18:01.503Z,23.75
2023-05-28T06:20:28.939Z,23.76
2023-05-28T06:22:57.051Z,23.76
2023-05-28T06:25:24.369Z,23.79
2023-05-28T06:27:52.260Z,23.80
2023-05-28T06:30:19.693Z,23.83
2023-05-28T06:32:47.074Z,23.83
2023-05-28T06:35:14.593Z,23.76
2023-05-28T06:37:41.865Z,23.77
2023-05-28T06:40:11.738Z,23.80
2023-05-28T06:42:41.971Z,23.79
2023-05-28T06:45:09.974Z,23.83
2023-05-28T06:47:37.463Z,23.78
2023-05-28T06:50:07.960Z,23.81
2023-05-28T06:52:35.275Z,23.84
2023-05-28T06:55:02.542Z,23.79
2023-05-28T06:57:29.917Z,23.76
2023-05-28T06:59:57.153Z,23.73
2023-05-28T07:02:24.556Z,23.67
2023-05-28T07:04:52.137Z,23.54
2023-05-28T07:07:19.744Z,23.46
2023-05-28T07:09:47.038Z,23.47
2023-05-28T07:12:14.353Z,23.52
2023-05-28T07:14:41.619Z,23.55
2023-05-28T07:17:09.004Z,23.56
2023-05-28T07:19:39.529Z,23.58
2023-05-28T07:22:06.748Z,23.59
2023-05-28T07:24:34.007Z,23.60
2023-05-28T07:27:01.894Z,23.60
2023-05-28T07:29:29.165Z,23.61
2023-05-28T07:31:56.871Z,23.61
2023-05-28T07:34:27.453Z,23.61
2023-05-28T07:36:54.721Z,23.62
2023-05-28T07:39:22.001Z,23.60
2023-05-28T07:41:49.551Z,23.60
2023-05-28T07:44:16.894Z,23.61
2023-05-28T07:46:44.546Z,23.61
2023-05-28T07:49:11.963Z,23.60
2023-05-28T07:51:39.270Z,23.60
2023-05-28T07:54:06.798Z,23.46
2023-05-28T07:56:34.070Z,23.11
2023-05-28T07:59:01.331Z,22.97
2023-05-28T08:01:28.684Z,22.92
2023-05-28T08:03:56.266Z,22.92
2023-05-28T08:06:23.594Z,22.93
2023-05-28T08:08:50.931Z,22.91
2023-05-28T08:11:18.389Z,22.90
2023-05-28T08:13:45.944Z,22.96
2023-05-28T08:16:13.594Z,23.11
2023-05-28T08:18:41.686Z,23.19
2023-05-28T08:21:09.358Z,23.25
2023-05-28T08:23:37.120Z,23.27
2023-05-28T08:26:04.717Z,23.29
2023-05-28T08:28:32.170Z,23.30
2023-05-28T08:30:59.483Z,23.33
2023-05-28T08:33:26.779Z,23.33
2023-05-28T08:35:54.380Z,23.34
2023-05-28T08:38:21.986Z,23.34
2023-05-28T08:40:56.493Z,23.31
2023-05-28T08:43:24.412Z,23.33
2023-05-28T08:45:55.103Z,23.27
2023-05-28T08:48:23.822Z,23.28
2023-05-28T08:50:54.813Z,23.34
2023-05-28T08:53:23.540Z,23.36
2023-05-28T08:55:51.670Z,23.39
2023-05-28T08:58:19.665Z,23.38
2023-05-28T09:00:48.124Z,23.29
2023-05-28T09:03:15.962Z,23.31
2023-05-28T09:05:43.344Z,23.30
2023-05-28T09:08:11.818Z,23.25
2023-05-28T09:10:40.203Z,23.19
2023-05-28T09:13:08.024Z,23.20
2023-05-28T09:15:37.230Z,23.22
2023-05-28T09:18:07.249Z,23.23
2023-05-28T09:20:34.976Z,23.20
2023-05-28T09:23:07.589Z,23.14
2023-05-28T09:25:37.493Z,23.15
2023-05-28T09:28:05.262Z,23.22
2023-05-28T09:30:36.947Z,23.22
2023-05-28T09:33:08.680Z,23.21
2023-05-28T09:35:36.690Z,23.26
2023-05-28T09:38:13.337Z,23.22
2023-05-28T09:40:41.562Z,23.28
2023-05-28T09:43:09.826Z,23.19
2023-05-28T09:45:37.429Z,23.19
2023-05-28T09:48:05.382Z,23.21
2023-05-28T09:50:33.043Z,23.23
2023-05-28T09:53:01.296Z,23.23
2023-05-28T09:55:29.559Z,23.22
2023-05-28T09:58:04.037Z,23.23
2023-05-28T10:00:43.234Z,23.19
2023-05-28T10:03:30.148Z,23.15
2023-05-28T10:06:05.174Z,23.08
2023-05-28T10:08:38.515Z,23.06
2023-05-28T10:11:14.110Z,23.07
2023-05-28T10:13:41.980Z,23.05
2023-05-28T10:16:10.127Z,23.06
2023-05-28T10:18:39.511Z,23.04
2023-05-28T10:21:09.252Z,23.13
2023-05-28T10:23:37.056Z,23.19
2023-05-28T10:26:05.281Z,23.08
2023-05-28T10:28:32.908Z,23.01
2023-05-28T10:31:05.426Z,22.99
2023-05-28T10:33:34.068Z,22.99
2023-05-28T10:36:02.070Z,23.02
2023-05-28T10:38:30.979Z,23.04
2023-05-28T10:41:04.644Z,23.00
2023-05-28T10:43:46.441Z,23.05
2023-05-28T10:46:16.545Z,23.07
2023-05-28T10:49:06.148Z,23.00
2023-05-28T10:52:00.921Z,22.97
2023-05-28T10:54:31.233Z,22.96
2023-05-28T10:57:15.437Z,22.95
2023-05-28T11:00:02.101Z,22.96
2023-05-28T11:02:34.313Z,22.95
2023-05-28T11:05:05.341Z,23.02
2023-05-28T11:07:42.478Z,23.08
2023-05-28T11:10:13.787Z,23.15
2023-05-28T11:12:42.831Z,23.11
2023-05-28T11:15:12.061Z,23.11
2023-05-28T11:17:40.512Z,23.09
2023-05-28T11:20:19.753Z,23.07
2023-05-28T11:22:47.500Z,23.13
2023-05-28T11:25:15.169Z,23.11
2023-05-28T11:27:42.677Z,23.07
2023-05-28T11:30:10.541Z,23.14
2023-05-28T11:32:37.893Z,23.19
2023-05-28T11:35:07.568Z,23.22
2023-05-28T11:37:36.439Z,23.21
2023-05-28T11:40:06.675Z,23.28
2023-05-28T11:42:34.463Z,23.26
2023-05-28T11:45:01.930Z,23.28
2023-05-28T11:47:32.160Z,23.29
2023-05-28T11:49:59.606Z,23.24
2023-05-28T11:52:27.746Z,23.18
2023-05-28T11:54:57.988Z,23.18
2023-05-28T11:57:34.694Z,23.20
2023-05-28T12:00:13.434Z,23.30
2023-05-28T12:02:45.386Z,23.34
2023-05-28T12:05:13.319Z,23.38
2023-05-28T12:07:46.635Z,23.36
2023-05-28T12:10:16.061Z,23.38
2023-05-28T12:12:45.536Z,23.36
2023-05-28T12:15:13.471Z,23.37
2023-05-28T12:17:43.159Z,23.42
2023-05-28T12:20:16.224Z,23.45
2023-05-28T12:22:44.191Z,23.46
2023-05-28T12:25:12.237Z,23.47
2023-05-28T12:27:39.912Z,23.48
2023-05-28T12:30:08.072Z,23.48
2023-05-28T12:32:38.361Z,23.44
2023-05-28T12:35:05.997Z,23.45
2023-05-28T12:37:33.938Z,23.40
2023-05-28T12:40:01.352Z,23.42
2023-05-28T12:42:28.635Z,23.42
2023-05-28T12:44:56.196Z,23.44
2023-05-28T12:47:23.492Z,23.47
2023-05-28T12:49:51.039Z,23.43
2023-05-28T12:52:18.316Z,23.53
2023-05-28T12:54:45.706Z,23.56
2023-05-28T12:57:12.960Z,23.49
2023-05-28T12:59:40.524Z,23.48
2023-05-28T13:02:07.973Z,23.53
2023-05-28T13:04:36.649Z,23.48
2023-05-28T13:07:04.752Z,23.51
2023-05-28T13:09:32.016Z,23.54
2023-05-28T13:11:59.228Z,23.55
2023-05-28T13:14:27.089Z,23.57
2023-05-28T13:16:56.641Z,23.56
2023-05-28T13:19:23.917Z,23.61
2023-05-28T13:21:51.596Z,23.63
2023-05-28T13:24:19.069Z,23.61
2023-05-28T13:26:46.308Z,23.61
2023-05-28T13:29:13.574Z,23.63
2023-05-28T13:31:41.344Z,23.61
2023-05-28T13:34:08.684Z,23.61
2023-05-28T13:36:37.099Z,23.61
2023-05-28T13:39:05.292Z,23.61
2023-05-28T13:41:32.856Z,23.59
2023-05-28T13:44:02.074Z,23.62
2023-05-28T13:46:29.484Z,23.60
2023-05-28T13:48:57.255Z,23.61
2023-05-28T13:51:24.631Z,23.60
2023-05-28T13:53:52.462Z,23.60
2023-05-28T13:56:19.759Z,23.63
2023-05-28T13:58:47.019Z,23.61
2023-05-28T14:01:14.561Z,23.62
2023-05-28T14:03:46.513Z,23.61
2023-05-28T14:06:14.698Z,23.63
2023-05-28T14:08:41.970Z,23.63
2023-05-28T14:11:09.554Z,23.62
2023-05-28T14:13:36.848Z,23.61
2023-05-28T14:16:04.152Z,23.66
2023-05-28T14:18:31.428Z,23.65
2023-05-28T14:20:59.047Z,23.66
2023-05-28T14:23:26.472Z,23.65
2023-05-28T14:25:54.308Z,23.65
2023-05-28T14:28:21.833Z,23.65
2023-05-28T14:30:49.101Z,23.65
2023-05-28T14:33:16.468Z,23.66
2023-05-28T14:35:43.775Z,23.67
2023-05-28T14:38:11.053Z,23.70
2023-05-28T14:40:38.312Z,23.67
2023-05-28T14:43:05.587Z,23.68
2023-05-28T14:45:33.047Z,23.69
2023-05-28T14:48:02.135Z,23.68
2023-05-28T14:50:29.555Z,23.68
2023-05-28T14:52:56.845Z,23.68
2023-05-28T14:55:24.142Z,23.69
2023-05-28T14:57:51.466Z,23.70
2023-05-28T15:00:18.820Z,23.71
2023-05-28T15:02:46.225Z,23.71
2023-05-28T15:05:13.589Z,23.71
2023-05-28T15:07:41.112Z,23.71
2023-05-28T15:10:08.771Z,23.71
2023-05-28T15:12:36.287Z,23.72
2023-05-28T15:15:04.733Z,23.71
2023-05-28T15:17:32.056Z,23.72
2023-05-28T15:19:59.376Z,23.71
2023-05-28T15:22:26.799Z,23.75
2023-05-28T15:24:54.156Z,23.72
2023-05-28T15:27:21.455Z,23.76
2023-05-28T15:29:49.085Z,23.76
2023-05-28T15:32:17.717Z,23.79
2023-05-28T15:34:45.109Z,23.76
2023-05-28T15:37:13.691Z,23.77
2023-05-28T15:39:41.084Z,23.77
2023-05-28T15:42:09.027Z,23.78
2023-05-28T15:44:36.621Z,23.77
2023-05-28T15:47:03.958Z,23.78
2023-05-28T15:49:31.461Z,23.80
2023-05-28T15:52:01.648Z,23.81
2023-05-28T15:54:29.192Z,23.79
2023-05-28T15:56:56.635Z,23.80
2023-05-28T15:59:24.043Z,23.82
2023-05-28T16:01:52.428Z,23.81
2023-05-28T16:04:22.089Z,23.81
2023-05-28T16:06:49.456Z,23.81
2023-05-28T16:09:16.776Z,23.82
2023-05-28T16:11:46.075Z,23.82
2023-05-28T16:14:16.973Z,23.83
2023-05-28T16:16:48.698Z,23.82
2023-05-28T16:19:16.272Z,23.82
2023-05-28T16:21:46.800Z,23.82
2023-05-28T16:24:15.762Z,23.83
2023-05-28T16:26:43.002Z,23.81
2023-05-28T16:29:10.357Z,23.81
2023-05-28T16:31:38.091Z,23.82
2023-05-28T16:34:05.636Z,23.82
2023-05-28T16:36:34.664Z,23.84
2023-05-28T16:39:03.311Z,23.84
2023-05-28T16:41:31.192Z,23.85
2023-05-28T16:43:58.688Z,23.86
2023-05-28T16:46:27.580Z,23.85
2023-05-28T16:48:55.524Z,23.83
2023-05-28T16:51:23.945Z,23.84
2023-05-28T16:53:51.888Z,23.86
2023-05-28T16:56:19.494Z,23.86
2023-05-28T16:58:48.245Z,23.84
2023-05-28T17:01:19.599Z,23.89
2023-05-28T17:03:47.252Z,23.86
2023-05-28T17:06:17.447Z,23.86
2023-05-28T17:08:46.146Z,23.87
2023-05-28T17:11:13.504Z,23.88
2023-05-28T17:13:40.713Z,23.86
2023-05-28T17:16:07.948Z,23.86
2023-05-28T17:18:35.193Z,23.86
2023-05-28T17:21:02.853Z,23.86
2023-05-28T17:23:30.290Z,23.87
2023-05-28T17:25:57.585Z,23.90
2023-05-28T17:28:25.002Z,23.86
2023-05-28T17:30:52.239Z,23.88
2023-05-28T17:33:19.457Z,23.89
2023-05-28T17:35:46.767Z,23.88
2023-05-28T17:38:14.058Z,23.90
2023-05-28T17:40:41.412Z,23.89
2023-05-28T17:43:08.688Z,23.86
2023-05-28T17:45:36.044Z,23.87
2023-05-28T17:48:04.355Z,23.88
2023-05-28T17:50:31.635Z,23.87
2023-05-28T17:52:58.878Z,23.88
2023-05-28T17:55:26.555Z,23.89
2023-05-28T17:57:53.985Z,23.88
2023-05-28T18:00:22.189Z,23.88
2023-05-28T18:02:54.775Z,23.88
2023-05-28T18:05:23.160Z,23.89
2023-05-28T18:07:50.449Z,23.89
2023-05-28T18:10:17.718Z,23.89
2023-05-28T18:12:44.980Z,23.88
2023-05-28T18:15:12.401Z,23.89
2023-05-28T18:17:40.011Z,23.88
2023-05-28T18:20:08.125Z,23.87
2023-05-28T18:22:35.490Z,23.90
2023-05-28T18:25:03.537Z,23.88
2023-05-28T18:27:30.815Z,23.88
2023-05-28T18:29:58.099Z,23.88
2023-05-28T18:32:25.420Z,23.88
2023-05-28T18:34:52.656Z,23.89
2023-05-28T18:37:19.914Z,23.88
2023-05-28T18:39:47.876Z,23.88
2023-05-28T18:42:15.110Z,23.88
2023-05-28T18:44:43.706Z,23.89
2023-05-28T18:47:11.254Z,23.89
2023-05-28T18:49:38.687Z,23.89
2023-05-28T18:52:08.797Z,23.90
2023-05-28T18:54:36.140Z,23.88
2023-05-28T18:57:03.494Z,23.90
2023-05-28T18:59:30.937Z,23.88
2023-05-28T19:02:01.234Z,23.90
2023-05-28T19:04:28.687Z,23.89
2023-05-28T19:06:56.954Z,23.88
2023-05-28T19:09:24.475Z,23.90
2023-05-28T19:11:51.722Z,23.88
2023-05-28T19:14:19.011Z,23.88
2023-05-28T19:16:46.430Z,23.88
2023-05-28T19:19:14.028Z,23.88
2023-05-28T19:21:41.314Z,23.91
2023-05-28T19:24:08.867Z,23.88
2023-05-28T19:26:36.761Z,23.89
2023-05-28T19:29:04.146Z,23.89
2023-05-28T19:31:31.405Z,23.90
2023-05-28T19:33:58.655Z,23.90
2023-05-28T19:36:26.054Z,23.89
2023-05-28T19:38:53.273Z,23.90
2023-05-28T19:41:20.649Z,23.90
2023-05-28T19:43:48.073Z,23.90
2023-05-28T19:46:18.203Z,23.89
2023-05-28T19:48:45.764Z,23.90
2023-05-28T19:51:13.573Z,23.88
2023-05-28T19:53:40.812Z,23.91
2023-05-28T19:56:08.069Z,23.92
2023-05-28T19:58:35.359Z,23.90
2023-05-28T20:01:02.693Z,23.86
2023-05-28T20:03:38.524Z,23.86
2023-05-28T20:06:06.554Z,23.85
2023-05-28T20:08:33.874Z,23.86
2023-05-28T20:11:01.110Z,23.84
2023-05-28T20:13:28.563Z,23.86
2023-05-28T20:15:56.008Z,23.99
2023-05-28T20:18:23.267Z,24.01
2023-05-28T20:20:50.635Z,24.01
2023-05-28T20:23:17.921Z,24.03
2023-05-28T20:25:45.700Z,24.04
2023-05-28T20:28:13.124Z,24.03
2023-05-28T20:30:40.394Z,24.06
2023-05-28T20:33:10.090Z,24.05
2023-05-28T20:35:37.511Z,24.07
2023-05-28T20:38:05.743Z,24.05
2023-05-28T20:40:36.253Z,24.04
2023-05-28T20:43:04.577Z,24.05
2023-05-28T20:45:36.907Z,24.03
2023-05-28T20:48:04.852Z,24.04
2023-05-28T20:50:32.535Z,24.03
2023-05-28T20:53:00.882Z,24.04
2023-05-28T20:55:28.154Z,24.08
2023-05-28T20:57:55.605Z,24.07
2023-05-28T21:00:23.612Z,24.04
2023-05-28T21:02:56.782Z,24.07
2023-05-28T21:05:24.849Z,24.09
2023-05-28T21:07:52.826Z,24.08
2023-05-28T21:10:20.136Z,24.08
2023-05-28T21:12:47.345Z,24.11
2023-05-28T21:15:16.161Z,24.10
2023-05-28T21:17:43.460Z,24.07
2023-05-28T21:20:11.314Z,24.11
2023-05-28T21:22:38.587Z,24.09
2023-05-28T21:25:06.235Z,24.09
2023-05-28T21:27:33.443Z,24.02
2023-05-28T21:30:01.296Z,23.85
2023-05-28T21:32:28.554Z,23.70
2023-05-28T21:34:55.938Z,23.60
2023-05-28T21:37:23.149Z,23.58
2023-05-28T21:39:51.383Z,23.53
2023-05-28T21:42:18.616Z,23.46
2023-05-28T21:44:45.886Z,23.45
2023-05-28T21:47:13.118Z,23.40
2023-05-28T21:49:40.382Z,23.39
2023-05-28T21:52:08.363Z,23.36
2023-05-28T21:54:35.909Z,23.34
2023-05-28T21:57:03.219Z,23.31
2023-05-28T21:59:31.033Z,23.30
2023-05-28T22:01:58.413Z,23.36
2023-05-28T22:04:25.773Z,23.51
2023-05-28T22:06:53.180Z,23.64
2023-05-28T22:09:20.930Z,23.65
2023-05-28T22:11:48.386Z,23.64
2023-05-28T22:14:21.536Z,23.62
2023-05-28T22:16:49.856Z,23.56
2023-05-28T22:19:18.347Z,23.44
2023-05-28T22:21:46.066Z,23.36
2023-05-28T22:24:13.381Z,23.28
2023-05-28T22:26:40.698Z,23.17
2023-05-28T22:29:08.263Z,23.12
2023-05-28T22:31:35.668Z,23.11
2023-05-28T22:34:03.525Z,23.09
2023-05-28T22:36:31.585Z,23.05
2023-05-28T22:38:59.036Z,23.02
2023-05-28T22:41:26.839Z,22.98
2023-05-28T22:43:54.213Z,23.16
2023-05-28T22:46:21.570Z,23.28
2023-05-28T22:48:50.080Z,23.33
2023-05-28T22:51:17.706Z,23.38
2023-05-28T22:53:45.480Z,23.43
2023-05-28T22:56:13.760Z,23.46
2023-05-28T22:58:42.198Z,23.49
2023-05-28T23:01:10.580Z,23.49
2023-05-28T23:03:38.751Z,23.53
2023-05-28T23:06:06.373Z,23.54
2023-05-28T23:08:33.760Z,23.55
2023-05-28T23:11:01.027Z,23.56
2023-05-28T23:13:28.225Z,23.58
2023-05-28T23:15:55.671Z,23.59
2023-05-28T23:18:23.059Z,23.57
2023-05-28T23:20:50.429Z,23.60
2023-05-28T23:23:17.998Z,23.60
2023-05-28T23:25:45.491Z,23.62
2023-05-28T23:28:12.720Z,23.60
2023-05-28T23:30:39.952Z,23.62
2023-05-28T23:33:07.214Z,23.63
2023-05-28T23:35:34.449Z,23.65
2023-05-28T23:38:01.693Z,23.65
2023-05-28T23:40:28.946Z,23.63
2023-05-28T23:42:57.572Z,23.63
2023-05-28T23:45:24.831Z,23.63
2023-05-28T23:47:52.082Z,23.64
2023-05-28T23:50:19.361Z,23.66
2023-05-28T23:52:46.630Z,23.66
2023-05-28T23:55:13.861Z,23.66
2023-05-28T23:57:41.512Z,23.65
